createdAt,value
2018-10-02T00:03:40.443Z,85.01
2018-10-02T00:08:59.106Z,84.73
2018-10-02T00:14:30.008Z,85.42
2018-10-02T00:19:48.735Z,85.49
2018-10-02T00:25:07.784Z,85.12
2018-10-02T00:30:26.442Z,85.72
2018-10-02T00:35:45.030Z,84.90
2018-10-02T00:41:03.804Z,85.22
2018-10-02T00:46:22.522Z,85.75
2018-10-02T00:51:41.172Z,85.51
2018-10-02T00:56:59.892Z,85.93
2018-10-02T01:02:18.506Z,86.19
2018-10-02T01:07:37.105Z,86.59
2018-10-02T01:12:55.671Z,86.37
2018-10-02T01:18:14.301Z,86.59
2018-10-02T01:23:33.008Z,86.89
2018-10-02T01:28:51.549Z,87.55
2018-10-02T01:34:10.135Z,87.47
2018-10-02T01:39:28.735Z,87.40
2018-10-02T01:44:47.435Z,87.77
2018-10-02T01:50:06.584Z,87.87
2018-10-02T01:55:28.207Z,88.06
2018-10-02T02:00:46.887Z,88.66
2018-10-02T02:06:05.514Z,88.45
2018-10-02T02:11:24.137Z,88.51
2018-10-02T02:16:42.718Z,87.87
2018-10-02T02:22:01.287Z,87.85
2018-10-02T02:27:19.986Z,87.97
2018-10-02T02:32:38.633Z,88.34
2018-10-02T02:37:57.214Z,88.35
2018-10-02T02:43:15.870Z,88.20
2018-10-02T02:48:39.874Z,88.80
2018-10-02T02:53:58.530Z,89.27
2018-10-02T02:59:17.194Z,89.23
2018-10-02T03:04:35.731Z,89.16
2018-10-02T03:09:54.387Z,88.93
2018-10-02T03:15:13.075Z,88.72
2018-10-02T03:20:31.975Z,89.16
2018-10-02T03:25:50.505Z,89.07
2018-10-02T03:31:09.238Z,89.02
2018-10-02T03:36:27.854Z,88.69
2018-10-02T03:41:46.436Z,88.61
2018-10-02T03:47:05.074Z,88.40
2018-10-02T03:52:23.643Z,87.69
2018-10-02T03:57:42.306Z,88.16
2018-10-02T04:03:00.958Z,87.56
2018-10-02T04:08:19.606Z,86.75
2018-10-02T04:13:38.290Z,86.57
2018-10-02T04:18:56.909Z,86.79
2018-10-02T04:24:15.517Z,86.27
2018-10-02T04:29:34.178Z,86.42
2018-10-02T04:35:03.979Z,86.11
2018-10-02T04:40:22.620Z,86.08
2018-10-02T04:45:41.197Z,84.74
2018-10-02T04:50:59.714Z,84.84
2018-10-02T04:56:18.283Z,84.91
2018-10-02T05:01:36.862Z,82.97
2018-10-02T05:06:55.462Z,83.53
2018-10-02T05:12:14.024Z,85.13
2018-10-02T05:17:32.627Z,83.23
2018-10-02T05:22:51.616Z,83.33
2018-10-02T05:28:10.230Z,82.08
2018-10-02T05:33:28.836Z,82.09
2018-10-02T05:38:47.514Z,81.50
2018-10-02T05:44:06.101Z,81.51
2018-10-02T05:49:25.220Z,81.74
2018-10-02T05:54:43.870Z,81.92
2018-10-02T06:00:02.668Z,81.28
2018-10-02T06:05:21.281Z,81.20
2018-10-02T06:10:39.969Z,80.98
2018-10-02T06:15:58.647Z,82.14
2018-10-02T06:21:17.295Z,83.17
2018-10-02T06:26:35.887Z,83.62
2018-10-02T06:31:54.525Z,83.06
2018-10-02T06:37:13.116Z,83.97
2018-10-02T06:42:32.628Z,82.70
2018-10-02T06:47:51.501Z,82.97
2018-10-02T06:53:10.066Z,83.42
2018-10-02T06:58:28.665Z,83.95
2018-10-02T07:03:47.316Z,83.75
2018-10-02T07:09:07.670Z,84.05
2018-10-02T07:14:26.307Z,83.72
2018-10-02T07:19:44.904Z,84.08
2018-10-02T07:25:03.684Z,83.48
2018-10-02T07:30:22.378Z,83.78
2018-10-02T07:35:41.109Z,83.05
2018-10-02T07:41:08.343Z,83.38
2018-10-02T07:46:27.017Z,83.38
2018-10-02T07:51:45.620Z,83.88
2018-10-02T07:57:04.489Z,83.67
2018-10-02T08:02:23.055Z,83.40
2018-10-02T08:07:41.764Z,84.75
2018-10-02T08:13:00.502Z,86.51
2018-10-02T08:18:19.093Z,88.53
2018-10-02T08:23:38.021Z,88.86
2018-10-02T08:28:56.582Z,88.36
2018-10-02T08:34:15.218Z,88.89
2018-10-02T08:39:33.848Z,89.06
2018-10-02T08:44:52.470Z,88.64
2018-10-02T08:50:11.116Z,89.29
2018-10-02T08:55:29.738Z,90.28
2018-10-02T09:00:48.554Z,89.29
2018-10-02T09:06:07.185Z,89.10
2018-10-02T09:11:25.962Z,89.67
2018-10-02T09:16:44.928Z,89.49
2018-10-02T09:22:03.521Z,89.71
2018-10-02T09:27:22.062Z,90.26
2018-10-02T09:32:45.836Z,89.86
2018-10-02T09:38:09.620Z,89.34
2018-10-02T09:43:37.317Z,89.90
2018-10-02T09:48:56.278Z,90.30
2018-10-02T09:54:14.969Z,90.26
2018-10-02T09:59:33.569Z,90.70
2018-10-02T10:04:52.160Z,90.78
2018-10-02T10:10:10.963Z,90.89
2018-10-02T10:15:30.250Z,90.97
2018-10-02T10:20:49.608Z,90.22
2018-10-02T10:26:08.217Z,90.36
2018-10-02T10:31:26.840Z,91.80
2018-10-02T10:36:45.541Z,91.13
2018-10-02T10:42:05.559Z,91.02
2018-10-02T10:47:24.060Z,91.62
2018-10-02T10:52:42.618Z,91.54
2018-10-02T10:58:01.133Z,92.05
2018-10-02T11:03:19.688Z,92.09
2018-10-02T11:08:38.226Z,91.73
2018-10-02T11:13:56.780Z,92.51
2018-10-02T11:19:16.006Z,92.74
2018-10-02T11:24:34.559Z,92.58
2018-10-02T11:29:53.128Z,92.91
2018-10-02T11:35:11.790Z,92.94
2018-10-02T11:40:30.263Z,93.33
2018-10-02T11:45:48.778Z,93.67
2018-10-02T11:51:14.033Z,93.38
2018-10-02T11:56:32.491Z,93.27
2018-10-02T12:01:51.111Z,93.34
2018-10-02T12:07:09.640Z,92.99
2018-10-02T12:12:28.140Z,92.93
2018-10-02T12:17:46.657Z,92.99
2018-10-02T12:23:05.313Z,93.25
2018-10-02T12:28:23.861Z,93.16
2018-10-02T12:33:42.449Z,93.11
2018-10-02T12:39:00.959Z,92.75
2018-10-02T12:44:19.455Z,92.81
2018-10-02T12:49:37.978Z,92.99
2018-10-02T12:54:56.481Z,92.89
2018-10-02T13:00:15.134Z,93.15
2018-10-02T13:05:33.647Z,93.37
2018-10-02T13:10:52.146Z,93.76
2018-10-02T13:16:10.694Z,93.88
2018-10-02T13:21:29.357Z,93.49
2018-10-02T13:26:47.977Z,93.67
2018-10-02T13:32:06.553Z,94.02
2018-10-02T13:37:25.370Z,94.33
2018-10-02T13:42:43.924Z,94.40
2018-10-02T13:48:02.659Z,94.50
2018-10-02T13:53:21.171Z,94.56
2018-10-02T13:58:39.738Z,94.14
2018-10-02T14:03:59.148Z,94.16
2018-10-02T14:09:17.766Z,94.38
2018-10-02T14:14:36.313Z,93.98
2018-10-02T14:19:54.854Z,93.99
2018-10-02T14:25:13.478Z,93.89
2018-10-02T14:30:32.119Z,93.81
2018-10-02T14:35:50.635Z,93.27
2018-10-02T14:41:09.226Z,93.70
2018-10-02T14:46:27.818Z,93.66
2018-10-02T14:51:46.373Z,93.26
2018-10-02T14:57:05.062Z,92.78
2018-10-02T15:02:23.744Z,92.11
2018-10-02T15:07:42.265Z,91.64
2018-10-02T15:13:00.793Z,91.64
2018-10-02T15:18:19.477Z,91.32
2018-10-02T15:23:38.166Z,91.73
2018-10-02T15:28:57.020Z,91.12
2018-10-02T15:34:15.607Z,90.75
2018-10-02T15:39:34.179Z,90.85
2018-10-02T15:44:52.765Z,90.50
2018-10-02T15:50:11.315Z,90.58
2018-10-02T15:55:29.864Z,89.98
2018-10-02T16:00:48.435Z,90.41
2018-10-02T16:06:07.143Z,90.69
2018-10-02T16:11:25.829Z,91.13
2018-10-02T16:16:44.438Z,91.10
2018-10-02T16:22:03.113Z,91.59
2018-10-02T16:27:21.751Z,91.78
2018-10-02T16:32:40.356Z,91.69
2018-10-02T16:37:58.905Z,91.36
2018-10-02T16:43:17.494Z,91.65
2018-10-02T16:48:36.098Z,91.03
2018-10-02T16:53:54.774Z,90.92
2018-10-02T16:59:13.519Z,90.74
2018-10-02T17:04:33.917Z,90.56
2018-10-02T17:09:52.515Z,90.86
2018-10-02T17:15:11.194Z,90.66
2018-10-02T17:20:29.915Z,90.12
2018-10-02T17:25:48.589Z,90.07
2018-10-02T17:31:07.260Z,90.38
2018-10-02T17:36:25.871Z,90.37
2018-10-02T17:41:44.526Z,90.30
2018-10-02T17:47:03.101Z,90.30
2018-10-02T17:52:21.636Z,89.74
2018-10-02T17:57:40.786Z,90.02
2018-10-02T18:02:59.621Z,89.01
2018-10-02T18:08:18.439Z,88.95
2018-10-02T18:13:37.244Z,88.56
2018-10-02T18:18:56.276Z,87.88
2018-10-02T18:24:15.114Z,87.48
2018-10-02T18:29:34.277Z,87.02
2018-10-02T18:34:53.056Z,85.94
2018-10-02T18:40:11.927Z,85.74
2018-10-02T18:45:30.876Z,85.27
2018-10-02T18:50:49.561Z,84.87
2018-10-02T18:56:08.302Z,83.84
2018-10-02T19:01:26.983Z,83.21
2018-10-02T19:06:45.740Z,82.15
2018-10-02T19:12:09.393Z,82.55
2018-10-02T19:17:28.314Z,81.53
2018-10-02T19:22:47.340Z,81.96
2018-10-02T19:28:06.097Z,80.97
2018-10-02T19:33:24.851Z,80.95
2018-10-02T19:38:48.531Z,81.69
2018-10-02T19:44:07.292Z,81.97
2018-10-02T19:49:28.458Z,80.91
2018-10-02T19:54:47.976Z,80.87
2018-10-02T20:00:07.336Z,80.86
2018-10-02T20:05:26.001Z,80.97
2018-10-02T20:10:44.667Z,80.90
2018-10-02T20:16:03.341Z,81.50
2018-10-02T20:21:21.987Z,81.30
2018-10-02T20:26:40.580Z,81.83
2018-10-02T20:31:59.350Z,82.18
2018-10-02T20:37:17.946Z,82.37
2018-10-02T20:42:36.711Z,81.46
2018-10-02T20:47:55.355Z,83.15
2018-10-02T20:53:14.030Z,83.04
2018-10-02T20:58:32.678Z,83.11
2018-10-02T21:03:51.357Z,84.02
2018-10-02T21:09:09.876Z,84.10
2018-10-02T21:14:28.555Z,83.60
2018-10-02T21:19:47.408Z,84.28
2018-10-02T21:25:06.436Z,84.22
2018-10-02T21:30:25.004Z,83.88
2018-10-02T21:35:43.635Z,84.37
2018-10-02T21:41:02.314Z,84.81
2018-10-02T21:46:20.879Z,84.89
2018-10-02T21:51:39.423Z,84.84
2018-10-02T21:56:58.145Z,84.23
2018-10-02T22:02:16.745Z,84.69
2018-10-02T22:07:35.288Z,84.51
2018-10-02T22:12:53.845Z,84.83
2018-10-02T22:18:12.525Z,84.53
2018-10-02T22:23:31.442Z,84.77
2018-10-02T22:28:50.116Z,84.93
2018-10-02T22:34:08.687Z,85.13
2018-10-02T22:39:27.325Z,84.73
2018-10-02T22:44:45.908Z,85.12
2018-10-02T22:50:04.848Z,85.53
2018-10-02T22:55:23.440Z,85.89
2018-10-02T23:00:42.036Z,85.76
2018-10-02T23:06:00.656Z,85.63
2018-10-02T23:11:19.241Z,85.65
2018-10-02T23:16:37.997Z,86.22
2018-10-02T23:21:56.672Z,86.01
2018-10-02T23:27:15.232Z,86.07
2018-10-02T23:32:34.139Z,86.91
2018-10-02T23:37:52.918Z,87.12
2018-10-02T23:43:11.890Z,87.17
2018-10-02T23:48:30.438Z,87.51
2018-10-02T23:53:49.083Z,87.99
2018-10-02T23:59:07.713Z,88.15
